sensor_id;sensor_type;location;lat;lon;timestamp;temperature;humidity
31443;SHT31;18065;55.876;9.830;2024-01-11T00:00:08;21.60;43.59
31443;SHT31;18065;55.876;9.830;2024-01-11T00:02:37;21.60;43.58
31443;SHT31;18065;55.876;9.830;2024-01-11T00:05:07;21.56;43.60
31443;SHT31;18065;55.876;9.830;2024-01-11T00:07:36;21.58;43.60
31443;SHT31;18065;55.876;9.830;2024-01-11T00:10:08;21.58;43.60
31443;SHT31;18065;55.876;9.830;2024-01-11T00:12:37;21.55;43.65
31443;SHT31;18065;55.876;9.830;2024-01-11T00:15:07;21.59;43.60
31443;SHT31;18065;55.876;9.830;2024-01-11T00:17:36;21.56;43.59
31443;SHT31;18065;55.876;9.830;2024-01-11T00:20:06;21.59;43.58
31443;SHT31;18065;55.876;9.830;2024-01-11T00:22:36;21.58;43.60
31443;SHT31;18065;55.876;9.830;2024-01-11T00:25:08;21.53;43.60
31443;SHT31;18065;55.876;9.830;2024-01-11T00:27:37;21.55;43.65
31443;SHT31;18065;55.876;9.830;2024-01-11T00:30:07;21.56;43.59
31443;SHT31;18065;55.876;9.830;2024-01-11T00:32:36;21.55;43.62
31443;SHT31;18065;55.876;9.830;2024-01-11T00:35:06;21.55;43.60
31443;SHT31;18065;55.876;9.830;2024-01-11T00:37:35;21.56;43.62
31443;SHT31;18065;55.876;9.830;2024-01-11T00:40:08;21.55;43.65
31443;SHT31;18065;55.876;9.830;2024-01-11T00:42:37;21.55;43.61
31443;SHT31;18065;55.876;9.830;2024-01-11T00:45:06;21.53;43.60
31443;SHT31;18065;55.876;9.830;2024-01-11T00:47:35;21.52;43.65
31443;SHT31;18065;55.876;9.830;2024-01-11T00:50:05;21.50;43.62
31443;SHT31;18065;55.876;9.830;2024-01-11T00:52:35;21.55;43.62
31443;SHT31;18065;55.876;9.830;2024-01-11T00:55:07;21.53;43.62
31443;SHT31;18065;55.876;9.830;2024-01-11T00:57:36;21.52;43.64
31443;SHT31;18065;55.876;9.830;2024-01-11T01:00:07;21.53;43.64
31443;SHT31;18065;55.876;9.830;2024-01-11T01:02:36;21.52;43.64
31443;SHT31;18065;55.876;9.830;2024-01-11T01:05:05;21.49;43.61
31443;SHT31;18065;55.876;9.830;2024-01-11T01:07:34;21.52;43.58
31443;SHT31;18065;55.876;9.830;2024-01-11T01:10:04;21.53;43.61
31443;SHT31;18065;55.876;9.830;2024-01-11T01:12:36;21.52;43.55
31443;SHT31;18065;55.876;9.830;2024-01-11T01:15:06;21.49;43.60
31443;SHT31;18065;55.876;9.830;2024-01-11T01:17:35;21.53;43.58
31443;SHT31;18065;55.876;9.830;2024-01-11T01:20:01;21.52;43.64
31443;SHT31;18065;55.876;9.830;2024-01-11T01:22:30;21.50;43.59
31443;SHT31;18065;55.876;9.830;2024-01-11T01:24:59;21.52;43.63
31443;SHT31;18065;55.876;9.830;2024-01-11T01:27:28;21.52;43.60
31443;SHT31;18065;55.876;9.830;2024-01-11T01:29:59;21.52;43.60
31443;SHT31;18065;55.876;9.830;2024-01-11T01:32:28;21.48;43.64
31443;SHT31;18065;55.876;9.830;2024-01-11T01:34:57;21.50;43.61
31443;SHT31;18065;55.876;9.830;2024-01-11T01:37:26;21.52;43.62
31443;SHT31;18065;55.876;9.830;2024-01-11T01:39:55;21.52;43.60
31443;SHT31;18065;55.876;9.830;2024-01-11T01:42:24;21.50;43.64
31443;SHT31;18065;55.876;9.830;2024-01-11T01:44:52;21.49;43.67
31443;SHT31;18065;55.876;9.830;2024-01-11T01:47:24;21.49;43.65
31443;SHT31;18065;55.876;9.830;2024-01-11T01:49:55;21.48;43.61
31443;SHT31;18065;55.876;9.830;2024-01-11T01:52:24;21.49;43.64
31443;SHT31;18065;55.876;9.830;2024-01-11T01:54:53;21.48;43.64
31443;SHT31;18065;55.876;9.830;2024-01-11T01:57:22;21.46;43.65
31443;SHT31;18065;55.876;9.830;2024-01-11T01:59:52;21.49;43.65
31443;SHT31;18065;55.876;9.830;2024-01-11T02:02:24;21.50;43.63
31443;SHT31;18065;55.876;9.830;2024-01-11T02:04:53;21.49;43.65
31443;SHT31;18065;55.876;9.830;2024-01-11T02:07:22;21.46;43.64
31443;SHT31;18065;55.876;9.830;2024-01-11T02:09:52;21.50;43.65
31443;SHT31;18065;55.876;9.830;2024-01-11T02:12:21;21.46;43.70
31443;SHT31;18065;55.876;9.830;2024-01-11T02:14:51;21.45;43.67
31443;SHT31;18065;55.876;9.830;2024-01-11T02:17:20;21.45;43.68
31443;SHT31;18065;55.876;9.830;2024-01-11T02:19:52;21.46;43.64
31443;SHT31;18065;55.876;9.830;2024-01-11T02:22:24;21.45;43.69
31443;SHT31;18065;55.876;9.830;2024-01-11T02:24:55;21.46;43.69
31443;SHT31;18065;55.876;9.830;2024-01-11T02:27:24;21.45;43.70
31443;SHT31;18065;55.876;9.830;2024-01-11T02:29:53;21.46;43.67
31443;SHT31;18065;55.876;9.830;2024-01-11T02:32:22;21.46;43.65
31443;SHT31;18065;55.876;9.830;2024-01-11T02:34:51;21.46;43.66
31443;SHT31;18065;55.876;9.830;2024-01-11T02:37:20;21.45;43.67
31443;SHT31;18065;55.876;9.830;2024-01-11T02:39:49;21.46;43.65
31443;SHT31;18065;55.876;9.830;2024-01-11T02:42:21;21.45;43.70
31443;SHT31;18065;55.876;9.830;2024-01-11T02:44:50;21.45;43.72
31443;SHT31;18065;55.876;9.830;2024-01-11T02:47:19;21.46;43.65
31443;SHT31;18065;55.876;9.830;2024-01-11T02:49:48;21.45;43.67
31443;SHT31;18065;55.876;9.830;2024-01-11T02:52:16;21.45;43.70
31443;SHT31;18065;55.876;9.830;2024-01-11T02:54:45;21.45;43.72
31443;SHT31;18065;55.876;9.830;2024-01-11T02:57:14;21.45;43.71
31443;SHT31;18065;55.876;9.830;2024-01-11T02:59:46;21.46;43.71
31443;SHT31;18065;55.876;9.830;2024-01-11T03:02:15;21.42;43.69
31443;SHT31;18065;55.876;9.830;2024-01-11T03:04:44;21.45;43.65
31443;SHT31;18065;55.876;9.830;2024-01-11T03:07:13;21.45;43.73
31443;SHT31;18065;55.876;9.830;2024-01-11T03:09:41;21.43;43.66
31443;SHT31;18065;55.876;9.830;2024-01-11T03:12:10;21.45;43.73
31443;SHT31;18065;55.876;9.830;2024-01-11T03:14:39;21.45;43.71
31443;SHT31;18065;55.876;9.830;2024-01-11T03:17:11;21.39;43.69
31443;SHT31;18065;55.876;9.830;2024-01-11T03:19:40;21.43;43.70
31443;SHT31;18065;55.876;9.830;2024-01-11T03:22:11;21.42;43.70
31443;SHT31;18065;55.876;9.830;2024-01-11T03:24:40;21.42;43.73
31443;SHT31;18065;55.876;9.830;2024-01-11T03:27:09;21.42;43.69
31443;SHT31;18065;55.876;9.830;2024-01-11T03:29:38;21.43;43.75
31443;SHT31;18065;55.876;9.830;2024-01-11T03:32:10;21.42;43.76
31443;SHT31;18065;55.876;9.830;2024-01-11T03:34:39;21.42;43.70
31443;SHT31;18065;55.876;9.830;2024-01-11T03:37:08;21.43;43.70
31443;SHT31;18065;55.876;9.830;2024-01-11T03:39:37;21.42;43.70
31443;SHT31;18065;55.876;9.830;2024-01-11T03:42:06;21.41;43.67
31443;SHT31;18065;55.876;9.830;2024-01-11T03:44:36;21.42;43.72
31443;SHT31;18065;55.876;9.830;2024-01-11T03:47:05;21.45;43.71
31443;SHT31;18065;55.876;9.830;2024-01-11T03:49:37;21.41;43.68
31443;SHT31;18065;55.876;9.830;2024-01-11T03:52:06;21.41;43.71
31443;SHT31;18065;55.876;9.830;2024-01-11T03:54:35;21.42;43.70
31443;SHT31;18065;55.876;9.830;2024-01-11T03:57:04;21.41;43.76
31443;SHT31;18065;55.876;9.830;2024-01-11T03:59:33;21.42;43.74
31443;SHT31;18065;55.876;9.830;2024-01-11T04:02:02;21.39;43.70
31443;SHT31;18065;55.876;9.830;2024-01-11T04:04:31;21.38;43.74
31443;SHT31;18065;55.876;9.830;2024-01-11T04:07:03;21.38;43.75
31443;SHT31;18065;55.876;9.830;2024-01-11T04:09:32;21.41;43.74
31443;SHT31;18065;55.876;9.830;2024-01-11T04:12:01;21.39;43.74
31443;SHT31;18065;55.876;9.830;2024-01-11T04:14:29;21.39;43.76
31443;SHT31;18065;55.876;9.830;2024-01-11T04:16:58;21.39;43.72
31443;SHT31;18065;55.876;9.830;2024-01-11T04:19:27;21.38;43.71
31443;SHT31;18065;55.876;9.830;2024-01-11T04:21:56;21.39;43.74
31443;SHT31;18065;55.876;9.830;2024-01-11T04:24:27;21.36;43.78
31443;SHT31;18065;55.876;9.830;2024-01-11T04:26:56;21.36;43.76
31443;SHT31;18065;55.876;9.830;2024-01-11T04:29:25;21.39;43.74
31443;SHT31;18065;55.876;9.830;2024-01-11T04:31:54;21.38;43.72
31443;SHT31;18065;55.876;9.830;2024-01-11T04:34:24;21.39;43.76
31443;SHT31;18065;55.876;9.830;2024-01-11T04:36:52;21.38;43.76
31443;SHT31;18065;55.876;9.830;2024-01-11T04:39:21;21.38;43.71
31443;SHT31;18065;55.876;9.830;2024-01-11T04:41:53;21.39;43.75
31443;SHT31;18065;55.876;9.830;2024-01-11T04:44:22;21.39;43.75
31443;SHT31;18065;55.876;9.830;2024-01-11T04:46:51;21.38;43.75
31443;SHT31;18065;55.876;9.830;2024-01-11T04:49:20;21.41;43.75
31443;SHT31;18065;55.876;9.830;2024-01-11T04:51:48;21.36;43.74
31443;SHT31;18065;55.876;9.830;2024-01-11T04:54:17;21.36;43.79
31443;SHT31;18065;55.876;9.830;2024-01-11T04:56:46;21.35;43.73
31443;SHT31;18065;55.876;9.830;2024-01-11T04:59:18;21.36;43.72
31443;SHT31;18065;55.876;9.830;2024-01-11T05:01:47;21.35;43.76
31443;SHT31;18065;55.876;9.830;2024-01-11T05:04:15;21.35;43.79
31443;SHT31;18065;55.876;9.830;2024-01-11T05:06:44;21.36;43.75
31443;SHT31;18065;55.876;9.830;2024-01-11T05:09:13;21.35;43.75
31443;SHT31;18065;55.876;9.830;2024-01-11T05:11:42;21.36;43.74
31443;SHT31;18065;55.876;9.830;2024-01-11T05:14:11;21.34;43.74
31443;SHT31;18065;55.876;9.830;2024-01-11T05:16:43;21.36;43.72
31443;SHT31;18065;55.876;9.830;2024-01-11T05:19:12;21.35;43.72
31443;SHT31;18065;55.876;9.830;2024-01-11T05:21:41;21.32;43.74
31443;SHT31;18065;55.876;9.830;2024-01-11T05:24:10;21.35;43.74
31443;SHT31;18065;55.876;9.830;2024-01-11T05:26:39;21.36;43.76
31443;SHT31;18065;55.876;9.830;2024-01-11T05:29:08;21.35;43.75
31443;SHT31;18065;55.876;9.830;2024-01-11T05:31:37;21.31;43.72
31443;SHT31;18065;55.876;9.830;2024-01-11T05:34:08;21.34;43.74
31443;SHT31;18065;55.876;9.830;2024-01-11T05:36:38;21.35;43.77
31443;SHT31;18065;55.876;9.830;2024-01-11T05:39:07;21.35;43.80
31443;SHT31;18065;55.876;9.830;2024-01-11T05:41:36;21.34;43.80
31443;SHT31;18065;55.876;9.830;2024-01-11T05:44:05;21.34;43.83
31443;SHT31;18065;55.876;9.830;2024-01-11T05:46:34;21.34;43.79
31443;SHT31;18065;55.876;9.830;2024-01-11T05:49:03;21.34;43.82
31443;SHT31;18065;55.876;9.830;2024-01-11T05:51:36;21.32;43.77
31443;SHT31;18065;55.876;9.830;2024-01-11T05:54:04;21.35;43.82
31443;SHT31;18065;55.876;9.830;2024-01-11T05:56:33;21.34;43.79
31443;SHT31;18065;55.876;9.830;2024-01-11T05:59:02;21.31;43.81
31443;SHT31;18065;55.876;9.830;2024-01-11T06:01:31;22.49;42.44
31443;SHT31;18065;55.876;9.830;2024-01-11T06:04:00;32.33;26.41
31443;SHT31;18065;55.876;9.830;2024-01-11T06:06:29;36.88;21.41
31443;SHT31;18065;55.876;9.830;2024-01-11T06:09:00;38.73;19.64
31443;SHT31;18065;55.876;9.830;2024-01-11T06:11:30;39.42;19.09
31443;SHT31;18065;55.876;9.830;2024-01-11T06:13:59;38.53;19.73
31443;SHT31;18065;55.876;9.830;2024-01-11T06:16:29;37.44;20.68
31443;SHT31;18065;55.876;9.830;2024-01-11T06:18:57;36.34;21.85
31443;SHT31;18065;55.876;9.830;2024-01-11T06:21:26;35.74;22.38
31443;SHT31;18065;55.876;9.830;2024-01-11T06:23:55;35.08;23.10
31443;SHT31;18065;55.876;9.830;2024-01-11T06:26:27;34.14;24.08
31443;SHT31;18065;55.876;9.830;2024-01-11T06:28:56;33.48;24.87
31443;SHT31;18065;55.876;9.830;2024-01-11T06:31:24;33.38;24.98
31443;SHT31;18065;55.876;9.830;2024-01-11T06:33:53;33.19;25.20
31443;SHT31;18065;55.876;9.830;2024-01-11T06:36:22;32.48;25.93
31443;SHT31;18065;55.876;9.830;2024-01-11T06:38:51;31.98;26.52
31443;SHT31;18065;55.876;9.830;2024-01-11T06:41:20;31.98;26.53
31443;SHT31;18065;55.876;9.830;2024-01-11T06:43:52;31.48;27.14
31443;SHT31;18065;55.876;9.830;2024-01-11T06:46:21;30.86;27.93
31443;SHT31;18065;55.876;9.830;2024-01-11T06:48:50;30.28;28.70
31443;SHT31;18065;55.876;9.830;2024-01-11T06:51:21;29.74;29.48
31443;SHT31;18065;55.876;9.830;2024-01-11T06:53:50;29.16;30.25
31443;SHT31;18065;55.876;9.830;2024-01-11T06:56:20;28.68;30.96
31443;SHT31;18065;55.876;9.830;2024-01-11T06:58:52;28.25;31.69
31443;SHT31;18065;55.876;9.830;2024-01-11T07:01:21;27.78;32.35
31443;SHT31;18065;55.876;9.830;2024-01-11T07:03:50;27.35;33.03
31443;SHT31;18065;55.876;9.830;2024-01-11T07:06:18;26.99;33.67
31443;SHT31;18065;55.876;9.830;2024-01-11T07:08:47;26.65;34.26
31443;SHT31;18065;55.876;9.830;2024-01-11T07:11:16;26.34;34.75
31443;SHT31;18065;55.876;9.830;2024-01-11T07:13:45;26.05;35.24
31443;SHT31;18065;55.876;9.830;2024-01-11T07:16:16;25.79;35.70
31443;SHT31;18065;55.876;9.830;2024-01-11T07:18:46;25.50;36.09
31443;SHT31;18065;55.876;9.830;2024-01-11T07:21:21;25.41;36.48
31443;SHT31;18065;55.876;9.830;2024-01-11T07:23:55;27.72;33.35
31443;SHT31;18065;55.876;9.830;2024-01-11T07:26:25;33.32;26.03
31443;SHT31;18065;55.876;9.830;2024-01-11T07:28:54;36.86;22.39
31443;SHT31;18065;55.876;9.830;2024-01-11T07:31:26;38.56;20.93
31443;SHT31;18065;55.876;9.830;2024-01-11T07:33:55;38.25;21.18
31443;SHT31;18065;55.876;9.830;2024-01-11T07:36:24;37.25;22.34
31443;SHT31;18065;55.876;9.830;2024-01-11T07:38:53;36.31;23.35
31443;SHT31;18065;55.876;9.830;2024-01-11T07:41:22;35.35;24.45
31443;SHT31;18065;55.876;9.830;2024-01-11T07:43:51;34.41;25.53
31443;SHT31;18065;55.876;9.830;2024-01-11T07:46:26;33.56;26.53
31443;SHT31;18065;55.876;9.830;2024-01-11T07:48:55;32.74;27.69
31443;SHT31;18065;55.876;9.830;2024-01-11T07:51:25;31.96;28.70
31443;SHT31;18065;55.876;9.830;2024-01-11T07:53:54;31.33;29.51
31443;SHT31;18065;55.876;9.830;2024-01-11T07:56:23;30.69;30.45
31443;SHT31;18065;55.876;9.830;2024-01-11T07:58:52;30.14;31.35
31443;SHT31;18065;55.876;9.830;2024-01-11T08:01:21;29.62;32.22
31443;SHT31;18065;55.876;9.830;2024-01-11T08:03:52;29.12;33.11
31443;SHT31;18065;55.876;9.830;2024-01-11T08:06:21;28.70;33.92
31443;SHT31;18065;55.876;9.830;2024-01-11T08:08:53;28.25;34.62
31443;SHT31;18065;55.876;9.830;2024-01-11T08:11:22;27.82;35.19
31443;SHT31;18065;55.876;9.830;2024-01-11T08:13:51;27.47;35.65
31443;SHT31;18065;55.876;9.830;2024-01-11T08:16:20;27.19;36.12
31443;SHT31;18065;55.876;9.830;2024-01-11T08:18:52;26.95;36.50
31443;SHT31;18065;55.876;9.830;2024-01-11T08:21:21;26.65;37.09
31443;SHT31;18065;55.876;9.830;2024-01-11T08:23:50;26.42;37.69
31443;SHT31;18065;55.876;9.830;2024-01-11T08:26:19;26.22;38.25
31443;SHT31;18065;55.876;9.830;2024-01-11T08:28:48;26.03;38.74
31443;SHT31;18065;55.876;9.830;2024-01-11T08:31:16;25.83;39.17
31443;SHT31;18065;55.876;9.830;2024-01-11T08:33:45;25.63;39.60
31443;SHT31;18065;55.876;9.830;2024-01-11T08:36:18;25.52;39.97
31443;SHT31;18065;55.876;9.830;2024-01-11T08:38:47;25.31;40.39
31443;SHT31;18065;55.876;9.830;2024-01-11T08:41:16;24.97;38.02
31443;SHT31;18065;55.876;9.830;2024-01-11T08:43:45;24.61;38.49
31443;SHT31;18065;55.876;9.830;2024-01-11T08:46:23;24.39;39.11
31443;SHT31;18065;55.876;9.830;2024-01-11T08:48:54;24.15;39.63
31443;SHT31;18065;55.876;9.830;2024-01-11T08:51:25;24.02;39.78
31443;SHT31;18065;55.876;9.830;2024-01-11T08:53:54;25.97;36.84
31443;SHT31;18065;55.876;9.830;2024-01-11T08:56:23;31.34;28.24
31443;SHT31;18065;55.876;9.830;2024-01-11T08:58:52;31.70;27.57
31443;SHT31;18065;55.876;9.830;2024-01-11T09:01:21;31.70;27.66
31443;SHT31;18065;55.876;9.830;2024-01-11T09:03:50;31.13;28.44
31443;SHT31;18065;55.876;9.830;2024-01-11T09:06:19;30.61;29.28
31443;SHT31;18065;55.876;9.830;2024-01-11T09:08:51;30.08;30.17
31443;SHT31;18065;55.876;9.830;2024-01-11T09:11:19;29.59;31.05
31443;SHT31;18065;55.876;9.830;2024-01-11T09:13:48;29.12;31.88
31443;SHT31;18065;55.876;9.830;2024-01-11T09:16:17;28.67;32.65
31443;SHT31;18065;55.876;9.830;2024-01-11T09:18:46;28.27;33.43
31443;SHT31;18065;55.876;9.830;2024-01-11T09:21:15;27.92;34.19
31443;SHT31;18065;55.876;9.830;2024-01-11T09:23:44;27.57;34.83
31443;SHT31;18065;55.876;9.830;2024-01-11T09:26:15;27.29;35.31
31443;SHT31;18065;55.876;9.830;2024-01-11T09:28:44;27.02;35.92
31443;SHT31;18065;55.876;9.830;2024-01-11T09:31:14;26.80;36.32
31443;SHT31;18065;55.876;9.830;2024-01-11T09:33:43;26.52;36.95
31443;SHT31;18065;55.876;9.830;2024-01-11T09:36:12;26.18;36.14
31443;SHT31;18065;55.876;9.830;2024-01-11T09:38:41;25.50;36.68
31443;SHT31;18065;55.876;9.830;2024-01-11T09:41:12;25.15;37.47
31443;SHT31;18065;55.876;9.830;2024-01-11T09:43:44;24.87;37.94
31443;SHT31;18065;55.876;9.830;2024-01-11T09:46:15;24.59;38.30
31443;SHT31;18065;55.876;9.830;2024-01-11T09:48:47;24.37;38.71
31443;SHT31;18065;55.876;9.830;2024-01-11T09:51:17;24.13;39.10
31443;SHT31;18065;55.876;9.830;2024-01-11T09:53:47;26.53;35.79
31443;SHT31;18065;55.876;9.830;2024-01-11T09:56:19;35.73;23.55
31443;SHT31;18065;55.876;9.830;2024-01-11T09:58:51;39.66;19.54
31443;SHT31;18065;55.876;9.830;2024-01-11T10:01:20;41.09;18.27
31443;SHT31;18065;55.876;9.830;2024-01-11T10:03:50;40.83;18.43
31443;SHT31;18065;55.876;9.830;2024-01-11T10:06:19;39.49;19.26
31443;SHT31;18065;55.876;9.830;2024-01-11T10:08:49;38.29;20.40
31443;SHT31;18065;55.876;9.830;2024-01-11T10:11:18;37.22;21.63
31443;SHT31;18065;55.876;9.830;2024-01-11T10:13:46;36.37;22.00
31443;SHT31;18065;55.876;9.830;2024-01-11T10:16:18;35.08;23.33
31443;SHT31;18065;55.876;9.830;2024-01-11T10:18:47;34.10;24.32
31443;SHT31;18065;55.876;9.830;2024-01-11T10:21:16;33.72;24.78
31443;SHT31;18065;55.876;9.830;2024-01-11T10:23:45;33.06;25.68
31443;SHT31;18065;55.876;9.830;2024-01-11T10:26:15;32.42;26.60
31443;SHT31;18065;55.876;9.830;2024-01-11T10:28:44;31.75;27.47
31443;SHT31;18065;55.876;9.830;2024-01-11T10:31:14;31.17;28.33
31443;SHT31;18065;55.876;9.830;2024-01-11T10:33:46;30.58;29.21
31443;SHT31;18065;55.876;9.830;2024-01-11T10:36:15;30.11;30.07
31443;SHT31;18065;55.876;9.830;2024-01-11T10:38:46;29.59;30.90
31443;SHT31;18065;55.876;9.830;2024-01-11T10:41:18;29.12;31.70
31443;SHT31;18065;55.876;9.830;2024-01-11T10:43:48;28.71;32.44
31443;SHT31;18065;55.876;9.830;2024-01-11T10:46:20;28.36;33.13
31443;SHT31;18065;55.876;9.830;2024-01-11T10:48:56;27.98;33.89
31443;SHT31;18065;55.876;9.830;2024-01-11T10:51:26;27.64;34.56
31443;SHT31;18065;55.876;9.830;2024-01-11T10:53:57;27.35;35.09
31443;SHT31;18065;55.876;9.830;2024-01-11T10:56:26;27.11;35.57
31443;SHT31;18065;55.876;9.830;2024-01-11T10:58:57;26.88;36.15
31443;SHT31;18065;55.876;9.830;2024-01-11T11:01:26;26.63;36.67
31443;SHT31;18065;55.876;9.830;2024-01-11T11:03:59;26.42;37.01
31443;SHT31;18065;55.876;9.830;2024-01-11T11:06:29;26.25;37.51
31443;SHT31;18065;55.876;9.830;2024-01-11T11:09:01;26.10;37.93
31443;SHT31;18065;55.876;9.830;2024-01-11T11:11:30;25.76;36.45
31443;SHT31;18065;55.876;9.830;2024-01-11T11:14:00;25.26;36.90
31443;SHT31;18065;55.876;9.830;2024-01-11T11:16:29;25.00;37.42
31443;SHT31;18065;55.876;9.830;2024-01-11T11:19:01;24.77;37.95
31443;SHT31;18065;55.876;9.830;2024-01-11T11:21:30;24.65;38.22
31443;SHT31;18065;55.876;9.830;2024-01-11T11:23:59;24.71;38.29
31443;SHT31;18065;55.876;9.830;2024-01-11T11:26:32;24.75;38.46
31443;SHT31;18065;55.876;9.830;2024-01-11T11:29:01;30.00;30.79
31443;SHT31;18065;55.876;9.830;2024-01-11T11:31:35;37.26;22.19
31443;SHT31;18065;55.876;9.830;2024-01-11T11:34:07;38.97;20.58
31443;SHT31;18065;55.876;9.830;2024-01-11T11:36:40;38.32;21.14
31443;SHT31;18065;55.876;9.830;2024-01-11T11:39:10;37.60;21.90
31443;SHT31;18065;55.876;9.830;2024-01-11T11:41:40;37.03;22.57
31443;SHT31;18065;55.876;9.830;2024-01-11T11:44:12;36.48;23.19
31443;SHT31;18065;55.876;9.830;2024-01-11T11:46:41;36.11;23.70
31443;SHT31;18065;55.876;9.830;2024-01-11T11:49:13;35.21;24.67
31443;SHT31;18065;55.876;9.830;2024-01-11T11:51:43;34.41;25.54
31443;SHT31;18065;55.876;9.830;2024-01-11T11:54:12;33.80;25.79
31443;SHT31;18065;55.876;9.830;2024-01-11T11:56:43;33.56;25.54
31443;SHT31;18065;55.876;9.830;2024-01-11T11:59:12;32.86;26.17
31443;SHT31;18065;55.876;9.830;2024-01-11T12:01:41;32.15;26.97
31443;SHT31;18065;55.876;9.830;2024-01-11T12:04:13;31.44;27.85
31443;SHT31;18065;55.876;9.830;2024-01-11T12:06:43;30.87;28.43
31443;SHT31;18065;55.876;9.830;2024-01-11T12:09:12;30.28;29.21
31443;SHT31;18065;55.876;9.830;2024-01-11T12:11:48;29.66;30.10
31443;SHT31;18065;55.876;9.830;2024-01-11T12:14:16;29.16;30.93
31443;SHT31;18065;55.876;9.830;2024-01-11T12:16:45;28.68;31.60
31443;SHT31;18065;55.876;9.830;2024-01-11T12:19:27;28.40;32.22
31443;SHT31;18065;55.876;9.830;2024-01-11T12:21:56;28.05;32.91
31443;SHT31;18065;55.876;9.830;2024-01-11T12:24:25;27.75;33.61
31443;SHT31;18065;55.876;9.830;2024-01-11T12:26:56;27.47;34.25
31443;SHT31;18065;55.876;9.830;2024-01-11T12:29:27;27.19;34.81
31443;SHT31;18065;55.876;9.830;2024-01-11T12:31:57;26.98;35.26
31443;SHT31;18065;55.876;9.830;2024-01-11T12:34:29;26.78;35.74
31443;SHT31;18065;55.876;9.830;2024-01-11T12:36:58;26.58;36.14
31443;SHT31;18065;55.876;9.830;2024-01-11T12:39:31;26.40;36.60
31443;SHT31;18065;55.876;9.830;2024-01-11T12:42:00;26.24;36.93
31443;SHT31;18065;55.876;9.830;2024-01-11T12:44:29;26.05;37.33
31443;SHT31;18065;55.876;9.830;2024-01-11T12:46:58;25.73;37.29
31443;SHT31;18065;55.876;9.830;2024-01-11T12:49:30;25.63;37.96
31443;SHT31;18065;55.876;9.830;2024-01-11T12:51:59;25.53;38.15
31443;SHT31;18065;55.876;9.830;2024-01-11T12:54:27;25.01;37.43
31443;SHT31;18065;55.876;9.830;2024-01-11T12:57:02;24.92;38.16
31443;SHT31;18065;55.876;9.830;2024-01-11T12:59:31;24.97;38.40
31443;SHT31;18065;55.876;9.830;2024-01-11T13:02:00;24.95;38.48
31443;SHT31;18065;55.876;9.830;2024-01-11T13:04:31;24.92;38.66
31443;SHT31;18065;55.876;9.830;2024-01-11T13:07:03;24.85;38.86
31443;SHT31;18065;55.876;9.830;2024-01-11T13:09:32;25.02;38.71
31443;SHT31;18065;55.876;9.830;2024-01-11T13:12:01;25.73;37.64
31443;SHT31;18065;55.876;9.830;2024-01-11T13:14:30;26.10;37.15
31443;SHT31;18065;55.876;9.830;2024-01-11T13:17:00;26.21;37.06
31443;SHT31;18065;55.876;9.830;2024-01-11T13:19:32;26.22;37.19
31443;SHT31;18065;55.876;9.830;2024-01-11T13:22:01;26.16;37.39
31443;SHT31;18065;55.876;9.830;2024-01-11T13:24:30;26.04;37.67
31443;SHT31;18065;55.876;9.830;2024-01-11T13:26:59;25.98;37.92
31443;SHT31;18065;55.876;9.830;2024-01-11T13:29:28;25.87;38.26
31443;SHT31;18065;55.876;9.830;2024-01-11T13:31:57;25.74;38.51
31443;SHT31;18065;55.876;9.830;2024-01-11T13:34:26;25.67;38.80
31443;SHT31;18065;55.876;9.830;2024-01-11T13:36:57;25.58;39.08
31443;SHT31;18065;55.876;9.830;2024-01-11T13:39:28;25.46;39.35
31443;SHT31;18065;55.876;9.830;2024-01-11T13:41:57;25.41;39.58
31443;SHT31;18065;55.876;9.830;2024-01-11T13:44:26;25.29;39.90
31443;SHT31;18065;55.876;9.830;2024-01-11T13:46:55;25.22;40.15
31443;SHT31;18065;55.876;9.830;2024-01-11T13:49:24;25.16;40.36
31443;SHT31;18065;55.876;9.830;2024-01-11T13:51:53;25.08;40.56
31443;SHT31;18065;55.876;9.830;2024-01-11T13:54:24;25.02;40.77
31443;SHT31;18065;55.876;9.830;2024-01-11T13:56:53;24.97;41.00
31443;SHT31;18065;55.876;9.830;2024-01-11T13:59:22;24.83;41.36
31443;SHT31;18065;55.876;9.830;2024-01-11T14:01:51;24.53;41.16
31443;SHT31;18065;55.876;9.830;2024-01-11T14:04:20;24.36;41.09
31443;SHT31;18065;55.876;9.830;2024-01-11T14:06:50;24.23;41.07
31443;SHT31;18065;55.876;9.830;2024-01-11T14:09:19;24.15;41.11
31443;SHT31;18065;55.876;9.830;2024-01-11T14:11:52;24.05;41.14
31443;SHT31;18065;55.876;9.830;2024-01-11T14:14:21;24.15;40.92
31443;SHT31;18065;55.876;9.830;2024-01-11T14:16:50;24.16;41.08
31443;SHT31;18065;55.876;9.830;2024-01-11T14:19:19;24.49;40.72
31443;SHT31;18065;55.876;9.830;2024-01-11T14:21:48;24.83;40.12
31443;SHT31;18065;55.876;9.830;2024-01-11T14:24:17;24.97;40.04
31443;SHT31;18065;55.876;9.830;2024-01-11T14:26:46;25.00;39.85
31443;SHT31;18065;55.876;9.830;2024-01-11T14:29:18;25.00;40.09
31443;SHT31;18065;55.876;9.830;2024-01-11T14:31:46;25.01;40.18
31443;SHT31;18065;55.876;9.830;2024-01-11T14:34:15;24.95;40.25
31443;SHT31;18065;55.876;9.830;2024-01-11T14:36:44;24.91;40.42
31443;SHT31;18065;55.876;9.830;2024-01-11T14:39:13;24.88;40.55
31443;SHT31;18065;55.876;9.830;2024-01-11T14:41:42;24.84;40.63
31443;SHT31;18065;55.876;9.830;2024-01-11T14:44:11;24.80;40.76
31443;SHT31;18065;55.876;9.830;2024-01-11T14:46:43;24.75;40.88
31443;SHT31;18065;55.876;9.830;2024-01-11T14:49:12;24.68;41.01
31443;SHT31;18065;55.876;9.830;2024-01-11T14:51:40;24.61;41.21
31443;SHT31;18065;55.876;9.830;2024-01-11T14:54:09;24.57;41.38
31443;SHT31;18065;55.876;9.830;2024-01-11T14:56:38;24.54;41.46
31443;SHT31;18065;55.876;9.830;2024-01-11T14:59:07;24.50;41.53
31443;SHT31;18065;55.876;9.830;2024-01-11T15:01:36;24.44;41.71
31443;SHT31;18065;55.876;9.830;2024-01-11T15:04:08;24.40;41.88
31443;SHT31;18065;55.876;9.830;2024-01-11T15:06:37;24.12;40.97
31443;SHT31;18065;55.876;9.830;2024-01-11T15:09:05;23.74;41.12
31443;SHT31;18065;55.876;9.830;2024-01-11T15:11:37;23.57;41.45
31443;SHT31;18065;55.876;9.830;2024-01-11T15:14:06;23.47;41.71
31443;SHT31;18065;55.876;9.830;2024-01-11T15:16:35;23.38;41.79
31443;SHT31;18065;55.876;9.830;2024-01-11T15:19:07;23.27;41.83
31443;SHT31;18065;55.876;9.830;2024-01-11T15:21:36;23.22;41.98
31443;SHT31;18065;55.876;9.830;2024-01-11T15:24:07;23.14;42.06
31443;SHT31;18065;55.876;9.830;2024-01-11T15:26:36;23.07;42.10
31443;SHT31;18065;55.876;9.830;2024-01-11T15:29:05;23.03;42.19
31443;SHT31;18065;55.876;9.830;2024-01-11T15:31:33;22.99;42.27
31443;SHT31;18065;55.876;9.830;2024-01-11T15:34:08;22.92;42.35
31443;SHT31;18065;55.876;9.830;2024-01-11T15:36:37;22.86;42.44
31443;SHT31;18065;55.876;9.830;2024-01-11T15:39:07;22.82;42.52
31443;SHT31;18065;55.876;9.830;2024-01-11T15:41:36;22.79;42.64
31443;SHT31;18065;55.876;9.830;2024-01-11T15:44:06;22.73;42.65